sensor_id;sensor_type;location;lat;lon;timestamp;temperature;humidity
81218;DHT22;70689;52.494;13.420;2023-07-31T00:00:25;17.80;61.80
81218;DHT22;70689;52.494;13.420;2023-07-31T00:02:52;17.70;62.10
81218;DHT22;70689;52.494;13.420;2023-07-31T00:05:18;17.70;62.30
81218;DHT22;70689;52.494;13.420;2023-07-31T00:07:43;17.80;62.30
81218;DHT22;70689;52.494;13.420;2023-07-31T00:10:09;17.90;62.30
81218;DHT22;70689;52.494;13.420;2023-07-31T00:12:35;17.90;62.00
81218;DHT22;70689;52.494;13.420;2023-07-31T00:15:01;17.80;61.80
81218;DHT22;70689;52.494;13.420;2023-07-31T00:17:28;17.80;61.60
81218;DHT22;70689;52.494;13.420;2023-07-31T00:19:53;18.00;61.80
81218;DHT22;70689;52.494;13.420;2023-07-31T00:22:19;17.90;61.80
81218;DHT22;70689;52.494;13.420;2023-07-31T00:24:45;17.80;62.10
81218;DHT22;70689;52.494;13.420;2023-07-31T00:27:11;17.80;62.30
81218;DHT22;70689;52.494;13.420;2023-07-31T00:29:36;17.80;62.60
81218;DHT22;70689;52.494;13.420;2023-07-31T00:32:02;17.80;62.70
81218;DHT22;70689;52.494;13.420;2023-07-31T00:34:28;17.80;62.60
81218;DHT22;70689;52.494;13.420;2023-07-31T00:36:54;17.80;63.00
81218;DHT22;70689;52.494;13.420;2023-07-31T00:39:19;17.80;63.10
81218;DHT22;70689;52.494;13.420;2023-07-31T00:41:45;17.80;63.70
81218;DHT22;70689;52.494;13.420;2023-07-31T00:44:10;17.80;63.30
81218;DHT22;70689;52.494;13.420;2023-07-31T00:46:36;17.80;62.90
81218;DHT22;70689;52.494;13.420;2023-07-31T00:49:02;17.90;62.50
81218;DHT22;70689;52.494;13.420;2023-07-31T00:51:28;18.00;62.70
81218;DHT22;70689;52.494;13.420;2023-07-31T00:53:54;18.00;62.80
81218;DHT22;70689;52.494;13.420;2023-07-31T00:56:21;18.00;62.80
81218;DHT22;70689;52.494;13.420;2023-07-31T00:58:47;18.10;62.30
81218;DHT22;70689;52.494;13.420;2023-07-31T01:01:13;18.10;62.20
81218;DHT22;70689;52.494;13.420;2023-07-31T01:03:39;18.20;62.20
81218;DHT22;70689;52.494;13.420;2023-07-31T01:09:00;18.00;63.10
81218;DHT22;70689;52.494;13.420;2023-07-31T01:11:30;18.10;63.50
81218;DHT22;70689;52.494;13.420;2023-07-31T01:13:57;18.10;63.00
81218;DHT22;70689;52.494;13.420;2023-07-31T01:16:23;18.10;62.80
81218;DHT22;70689;52.494;13.420;2023-07-31T01:18:48;18.10;62.90
81218;DHT22;70689;52.494;13.420;2023-07-31T01:24:28;18.00;63.20
81218;DHT22;70689;52.494;13.420;2023-07-31T01:27:08;17.90;63.60
81218;DHT22;70689;52.494;13.420;2023-07-31T01:32:37;18.00;63.90
81218;DHT22;70689;52.494;13.420;2023-07-31T01:35:04;18.00;63.60
81218;DHT22;70689;52.494;13.420;2023-07-31T01:37:30;18.00;63.80
81218;DHT22;70689;52.494;13.420;2023-07-31T01:39:56;18.00;63.70
81218;DHT22;70689;52.494;13.420;2023-07-31T01:42:21;18.00;64.00
81218;DHT22;70689;52.494;13.420;2023-07-31T01:44:47;17.90;64.00
81218;DHT22;70689;52.494;13.420;2023-07-31T01:47:13;18.00;64.10
81218;DHT22;70689;52.494;13.420;2023-07-31T01:49:38;18.10;63.70
81218;DHT22;70689;52.494;13.420;2023-07-31T01:52:04;18.10;63.40
81218;DHT22;70689;52.494;13.420;2023-07-31T01:54:30;18.10;63.50
81218;DHT22;70689;52.494;13.420;2023-07-31T01:56:56;18.10;63.90
81218;DHT22;70689;52.494;13.420;2023-07-31T01:59:21;18.20;63.60
81218;DHT22;70689;52.494;13.420;2023-07-31T02:01:47;18.20;63.00
81218;DHT22;70689;52.494;13.420;2023-07-31T02:04:13;18.20;63.20
81218;DHT22;70689;52.494;13.420;2023-07-31T02:06:39;18.20;63.80
81218;DHT22;70689;52.494;13.420;2023-07-31T02:09:05;18.30;63.50
81218;DHT22;70689;52.494;13.420;2023-07-31T02:11:30;18.30;62.80
81218;DHT22;70689;52.494;13.420;2023-07-31T02:13:56;18.30;62.90
81218;DHT22;70689;52.494;13.420;2023-07-31T02:16:21;18.20;63.60
81218;DHT22;70689;52.494;13.420;2023-07-31T02:18:47;18.20;64.30
81218;DHT22;70689;52.494;13.420;2023-07-31T02:21:13;18.20;63.60
81218;DHT22;70689;52.494;13.420;2023-07-31T02:23:38;18.30;63.70
81218;DHT22;70689;52.494;13.420;2023-07-31T02:26:04;18.30;63.00
81218;DHT22;70689;52.494;13.420;2023-07-31T02:28:30;18.30;62.60
81218;DHT22;70689;52.494;13.420;2023-07-31T02:30:55;18.30;62.60
81218;DHT22;70689;52.494;13.420;2023-07-31T02:33:21;18.20;63.80
81218;DHT22;70689;52.494;13.420;2023-07-31T02:35:47;18.20;64.30
81218;DHT22;70689;52.494;13.420;2023-07-31T02:38:12;18.20;63.60
81218;DHT22;70689;52.494;13.420;2023-07-31T02:40:39;18.20;63.60
81218;DHT22;70689;52.494;13.420;2023-07-31T02:43:07;18.30;63.80
81218;DHT22;70689;52.494;13.420;2023-07-31T02:45:32;18.30;63.30
81218;DHT22;70689;52.494;13.420;2023-07-31T02:47:58;18.40;62.60
81218;DHT22;70689;52.494;13.420;2023-07-31T02:50:24;18.40;62.30
81218;DHT22;70689;52.494;13.420;2023-07-31T02:52:49;18.30;62.50
81218;DHT22;70689;52.494;13.420;2023-07-31T02:55:15;18.40;62.80
81218;DHT22;70689;52.494;13.420;2023-07-31T02:57:40;18.40;63.20
81218;DHT22;70689;52.494;13.420;2023-07-31T03:00:06;18.40;63.10
81218;DHT22;70689;52.494;13.420;2023-07-31T03:02:32;18.40;62.40
81218;DHT22;70689;52.494;13.420;2023-07-31T03:04:58;18.40;62.50
81218;DHT22;70689;52.494;13.420;2023-07-31T03:07:24;18.40;62.80
81218;DHT22;70689;52.494;13.420;2023-07-31T03:09:49;18.30;62.80
81218;DHT22;70689;52.494;13.420;2023-07-31T03:12:15;18.20;63.00
81218;DHT22;70689;52.494;13.420;2023-07-31T03:14:40;18.20;63.30
81218;DHT22;70689;52.494;13.420;2023-07-31T03:17:06;18.20;63.40
81218;DHT22;70689;52.494;13.420;2023-07-31T03:19:32;18.30;63.50
81218;DHT22;70689;52.494;13.420;2023-07-31T03:21:58;18.20;63.90
81218;DHT22;70689;52.494;13.420;2023-07-31T03:24:25;18.10;64.00
81218;DHT22;70689;52.494;13.420;2023-07-31T03:26:50;18.10;64.70
81218;DHT22;70689;52.494;13.420;2023-07-31T03:29:16;18.10;64.70
81218;DHT22;70689;52.494;13.420;2023-07-31T03:31:42;18.10;65.10
81218;DHT22;70689;52.494;13.420;2023-07-31T03:34:08;18.00;65.10
81218;DHT22;70689;52.494;13.420;2023-07-31T03:36:33;18.10;64.70
81218;DHT22;70689;52.494;13.420;2023-07-31T03:38:59;18.10;65.10
81218;DHT22;70689;52.494;13.420;2023-07-31T03:41:25;18.10;65.20
81218;DHT22;70689;52.494;13.420;2023-07-31T03:43:51;18.10;65.10
81218;DHT22;70689;52.494;13.420;2023-07-31T03:46:22;18.10;65.10
81218;DHT22;70689;52.494;13.420;2023-07-31T03:48:48;18.10;64.70
81218;DHT22;70689;52.494;13.420;2023-07-31T03:51:14;18.00;65.10
81218;DHT22;70689;52.494;13.420;2023-07-31T03:53:39;18.00;65.10
81218;DHT22;70689;52.494;13.420;2023-07-31T03:56:05;18.00;65.20
81218;DHT22;70689;52.494;13.420;2023-07-31T03:58:30;18.00;65.10
81218;DHT22;70689;52.494;13.420;2023-07-31T04:00:56;18.00;65.10
81218;DHT22;70689;52.494;13.420;2023-07-31T04:03:22;18.00;65.10
81218;DHT22;70689;52.494;13.420;2023-07-31T04:05:47;18.00;65.10
81218;DHT22;70689;52.494;13.420;2023-07-31T04:08:13;18.00;65.20
81218;DHT22;70689;52.494;13.420;2023-07-31T04:10:39;17.90;65.30
81218;DHT22;70689;52.494;13.420;2023-07-31T04:13:08;17.90;65.40
81218;DHT22;70689;52.494;13.420;2023-07-31T04:15:34;18.00;65.10
81218;DHT22;70689;52.494;13.420;2023-07-31T04:17:59;17.90;65.50
81218;DHT22;70689;52.494;13.420;2023-07-31T04:20:25;17.90;65.60
81218;DHT22;70689;52.494;13.420;2023-07-31T04:22:50;17.90;65.60
81218;DHT22;70689;52.494;13.420;2023-07-31T04:25:16;17.90;65.60
81218;DHT22;70689;52.494;13.420;2023-07-31T04:27:42;18.00;65.40
81218;DHT22;70689;52.494;13.420;2023-07-31T04:30:10;18.00;65.40
81218;DHT22;70689;52.494;13.420;2023-07-31T04:32:36;18.00;65.30
81218;DHT22;70689;52.494;13.420;2023-07-31T04:35:02;17.90;65.20
81218;DHT22;70689;52.494;13.420;2023-07-31T04:37:28;17.90;65.60
81218;DHT22;70689;52.494;13.420;2023-07-31T04:39:53;17.90;65.60
81218;DHT22;70689;52.494;13.420;2023-07-31T04:42:19;17.90;66.80
81218;DHT22;70689;52.494;13.420;2023-07-31T04:44:45;18.00;66.00
81218;DHT22;70689;52.494;13.420;2023-07-31T04:47:10;18.10;65.60
81218;DHT22;70689;52.494;13.420;2023-07-31T04:49:36;18.10;65.40
81218;DHT22;70689;52.494;13.420;2023-07-31T04:52:02;18.10;65.40
81218;DHT22;70689;52.494;13.420;2023-07-31T04:54:28;18.10;65.50
81218;DHT22;70689;52.494;13.420;2023-07-31T04:56:53;18.20;65.50
81218;DHT22;70689;52.494;13.420;2023-07-31T04:59:19;18.20;65.60
81218;DHT22;70689;52.494;13.420;2023-07-31T05:01:45;18.20;65.60
81218;DHT22;70689;52.494;13.420;2023-07-31T05:04:13;18.20;65.70
81218;DHT22;70689;52.494;13.420;2023-07-31T05:06:39;18.20;65.20
81218;DHT22;70689;52.494;13.420;2023-07-31T05:09:05;18.20;65.70
81218;DHT22;70689;52.494;13.420;2023-07-31T05:11:31;18.20;65.60
81218;DHT22;70689;52.494;13.420;2023-07-31T05:13:56;18.20;65.60
81218;DHT22;70689;52.494;13.420;2023-07-31T05:16:22;18.30;65.60
81218;DHT22;70689;52.494;13.420;2023-07-31T05:18:48;18.30;65.30
81218;DHT22;70689;52.494;13.420;2023-07-31T05:21:13;18.30;65.20
81218;DHT22;70689;52.494;13.420;2023-07-31T05:23:39;18.40;65.30
81218;DHT22;70689;52.494;13.420;2023-07-31T05:26:06;18.30;65.20
81218;DHT22;70689;52.494;13.420;2023-07-31T05:28:34;18.40;65.20
81218;DHT22;70689;52.494;13.420;2023-07-31T05:31:00;18.40;65.30
81218;DHT22;70689;52.494;13.420;2023-07-31T05:33:27;18.40;64.60
81218;DHT22;70689;52.494;13.420;2023-07-31T05:35:53;18.40;65.00
81218;DHT22;70689;52.494;13.420;2023-07-31T05:38:18;18.40;65.20
81218;DHT22;70689;52.494;13.420;2023-07-31T05:40:44;18.40;65.30
81218;DHT22;70689;52.494;13.420;2023-07-31T05:43:10;18.40;65.20
81218;DHT22;70689;52.494;13.420;2023-07-31T05:45:36;18.30;65.20
81218;DHT22;70689;52.494;13.420;2023-07-31T05:48:02;18.20;65.60
81218;DHT22;70689;52.494;13.420;2023-07-31T05:50:28;18.10;66.00
81218;DHT22;70689;52.494;13.420;2023-07-31T05:52:54;18.10;66.50
81218;DHT22;70689;52.494;13.420;2023-07-31T05:55:19;18.10;66.50
81218;DHT22;70689;52.494;13.420;2023-07-31T05:57:46;18.00;66.90
81218;DHT22;70689;52.494;13.420;2023-07-31T06:00:12;18.20;66.90
81218;DHT22;70689;52.494;13.420;2023-07-31T06:02:38;18.30;66.50
81218;DHT22;70689;52.494;13.420;2023-07-31T06:05:04;18.40;66.10
81218;DHT22;70689;52.494;13.420;2023-07-31T06:07:31;18.30;65.60
81218;DHT22;70689;52.494;13.420;2023-07-31T06:09:57;18.30;65.70
81218;DHT22;70689;52.494;13.420;2023-07-31T06:12:28;18.30;65.80
81218;DHT22;70689;52.494;13.420;2023-07-31T06:14:54;18.20;66.00
81218;DHT22;70689;52.494;13.420;2023-07-31T06:17:20;18.30;66.10
81218;DHT22;70689;52.494;13.420;2023-07-31T06:19:47;18.40;65.90
81218;DHT22;70689;52.494;13.420;2023-07-31T06:22:12;18.40;66.10
81218;DHT22;70689;52.494;13.420;2023-07-31T06:24:38;18.30;65.90
81218;DHT22;70689;52.494;13.420;2023-07-31T06:27:04;18.30;66.10
81218;DHT22;70689;52.494;13.420;2023-07-31T06:29:31;18.20;67.20
81218;DHT22;70689;52.494;13.420;2023-07-31T06:31:57;18.10;67.30
81218;DHT22;70689;52.494;13.420;2023-07-31T06:34:22;18.30;67.00
81218;DHT22;70689;52.494;13.420;2023-07-31T06:36:48;18.30;67.00
81218;DHT22;70689;52.494;13.420;2023-07-31T06:39:14;18.10;67.70
81218;DHT22;70689;52.494;13.420;2023-07-31T06:41:39;18.10;68.00
81218;DHT22;70689;52.494;13.420;2023-07-31T06:44:05;18.20;68.00
81218;DHT22;70689;52.494;13.420;2023-07-31T06:46:31;18.20;67.50
81218;DHT22;70689;52.494;13.420;2023-07-31T06:48:56;18.20;67.90
81218;DHT22;70689;52.494;13.420;2023-07-31T06:51:22;18.30;67.40
81218;DHT22;70689;52.494;13.420;2023-07-31T06:53:48;18.40;67.20
81218;DHT22;70689;52.494;13.420;2023-07-31T06:56:13;18.40;67.00
81218;DHT22;70689;52.494;13.420;2023-07-31T06:58:39;18.30;66.40
81218;DHT22;70689;52.494;13.420;2023-07-31T07:01:05;18.30;67.30
81218;DHT22;70689;52.494;13.420;2023-07-31T07:03:32;18.20;66.90
81218;DHT22;70689;52.494;13.420;2023-07-31T07:05:57;18.20;68.00
81218;DHT22;70689;52.494;13.420;2023-07-31T07:08:24;18.20;68.10
81218;DHT22;70689;52.494;13.420;2023-07-31T07:10:50;18.20;67.30
81218;DHT22;70689;52.494;13.420;2023-07-31T07:13:15;18.10;67.70
81218;DHT22;70689;52.494;13.420;2023-07-31T07:15:41;18.20;67.50
81218;DHT22;70689;52.494;13.420;2023-07-31T07:18:07;18.20;67.50
81218;DHT22;70689;52.494;13.420;2023-07-31T07:20:33;18.20;67.60
81218;DHT22;70689;52.494;13.420;2023-07-31T07:22:58;18.10;67.30
81218;DHT22;70689;52.494;13.420;2023-07-31T07:25:24;18.10;68.20
81218;DHT22;70689;52.494;13.420;2023-07-31T07:27:49;18.10;68.20
81218;DHT22;70689;52.494;13.420;2023-07-31T07:30:15;18.10;68.30
81218;DHT22;70689;52.494;13.420;2023-07-31T07:32:41;18.30;67.80
81218;DHT22;70689;52.494;13.420;2023-07-31T07:35:07;18.30;67.30
81218;DHT22;70689;52.494;13.420;2023-07-31T07:37:32;18.40;66.60
81218;DHT22;70689;52.494;13.420;2023-07-31T07:39:59;18.50;66.50
81218;DHT22;70689;52.494;13.420;2023-07-31T07:42:25;18.50;66.60
81218;DHT22;70689;52.494;13.420;2023-07-31T07:44:50;18.60;66.70
81218;DHT22;70689;52.494;13.420;2023-07-31T07:47:16;18.80;65.50
81218;DHT22;70689;52.494;13.420;2023-07-31T07:49:42;18.90;65.00
81218;DHT22;70689;52.494;13.420;2023-07-31T07:52:07;18.90;65.10
81218;DHT22;70689;52.494;13.420;2023-07-31T07:54:33;19.10;64.70
81218;DHT22;70689;52.494;13.420;2023-07-31T07:56:59;19.10;64.40
81218;DHT22;70689;52.494;13.420;2023-07-31T07:59:25;18.90;64.60
81218;DHT22;70689;52.494;13.420;2023-07-31T08:01:50;18.60;66.00
81218;DHT22;70689;52.494;13.420;2023-07-31T08:04:16;18.40;67.10
81218;DHT22;70689;52.494;13.420;2023-07-31T08:06:41;18.30;68.00
81218;DHT22;70689;52.494;13.420;2023-07-31T08:09:07;18.40;67.60
81218;DHT22;70689;52.494;13.420;2023-07-31T08:11:34;18.30;68.40
81218;DHT22;70689;52.494;13.420;2023-07-31T08:14:00;18.20;69.00
81218;DHT22;70689;52.494;13.420;2023-07-31T08:16:26;18.10;69.50
81218;DHT22;70689;52.494;13.420;2023-07-31T08:18:52;18.10;70.40
81218;DHT22;70689;52.494;13.420;2023-07-31T08:21:17;18.10;70.40
81218;DHT22;70689;52.494;13.420;2023-07-31T08:23:43;18.00;70.80
81218;DHT22;70689;52.494;13.420;2023-07-31T08:26:15;18.00;70.70
81218;DHT22;70689;52.494;13.420;2023-07-31T08:28:40;18.10;70.30
81218;DHT22;70689;52.494;13.420;2023-07-31T08:31:06;18.20;69.70
81218;DHT22;70689;52.494;13.420;2023-07-31T08:33:32;18.30;70.50
81218;DHT22;70689;52.494;13.420;2023-07-31T08:35:57;18.30;70.10
81218;DHT22;70689;52.494;13.420;2023-07-31T08:38:25;18.30;70.70
81218;DHT22;70689;52.494;13.420;2023-07-31T08:40:51;18.40;70.00
81218;DHT22;70689;52.494;13.420;2023-07-31T08:43:18;18.50;69.80
81218;DHT22;70689;52.494;13.420;2023-07-31T08:45:44;18.50;69.70
81218;DHT22;70689;52.494;13.420;2023-07-31T08:48:11;18.50;70.30
81218;DHT22;70689;52.494;13.420;2023-07-31T08:50:38;18.60;69.80
81218;DHT22;70689;52.494;13.420;2023-07-31T08:53:04;18.80;69.20
81218;DHT22;70689;52.494;13.420;2023-07-31T08:55:32;18.70;68.40
81218;DHT22;70689;52.494;13.420;2023-07-31T08:57:58;18.90;68.00
81218;DHT22;70689;52.494;13.420;2023-07-31T09:00:26;19.00;67.50
81218;DHT22;70689;52.494;13.420;2023-07-31T09:03:03;19.10;65.90
81218;DHT22;70689;52.494;13.420;2023-07-31T09:05:33;18.80;66.70
81218;DHT22;70689;52.494;13.420;2023-07-31T09:08:00;18.90;67.10
81218;DHT22;70689;52.494;13.420;2023-07-31T09:10:27;19.00;66.50
81218;DHT22;70689;52.494;13.420;2023-07-31T09:12:53;19.10;65.70
81218;DHT22;70689;52.494;13.420;2023-07-31T09:15:19;19.20;65.60
81218;DHT22;70689;52.494;13.420;2023-07-31T09:17:44;19.00;66.00
81218;DHT22;70689;52.494;13.420;2023-07-31T09:22:40;19.10;66.50
81218;DHT22;70689;52.494;13.420;2023-07-31T09:25:20;19.10;66.10
81218;DHT22;70689;52.494;13.420;2023-07-31T09:28:07;19.10;65.50
81218;DHT22;70689;52.494;13.420;2023-07-31T09:30:46;19.10;66.00
81218;DHT22;70689;52.494;13.420;2023-07-31T09:33:13;19.00;66.00
81218;DHT22;70689;52.494;13.420;2023-07-31T09:35:39;18.90;67.10
81218;DHT22;70689;52.494;13.420;2023-07-31T09:38:13;18.70;68.60
81218;DHT22;70689;52.494;13.420;2023-07-31T09:40:45;18.40;69.70
81218;DHT22;70689;52.494;13.420;2023-07-31T09:43:13;18.40;69.50
81218;DHT22;70689;52.494;13.420;2023-07-31T09:45:41;18.30;69.70
81218;DHT22;70689;52.494;13.420;2023-07-31T09:48:15;18.30;69.80
81218;DHT22;70689;52.494;13.420;2023-07-31T09:50:45;18.30;70.40
81218;DHT22;70689;52.494;13.420;2023-07-31T09:53:11;18.50;69.90
81218;DHT22;70689;52.494;13.420;2023-07-31T09:55:38;18.60;69.70
81218;DHT22;70689;52.494;13.420;2023-07-31T09:58:06;18.50;68.00
81218;DHT22;70689;52.494;13.420;2023-07-31T10:00:33;18.50;69.00
81218;DHT22;70689;52.494;13.420;2023-07-31T10:03:01;18.50;69.30
81218;DHT22;70689;52.494;13.420;2023-07-31T10:05:45;18.50;68.60
81218;DHT22;70689;52.494;13.420;2023-07-31T10:08:15;18.70;68.60
81218;DHT22;70689;52.494;13.420;2023-07-31T10:10:43;18.70;68.00
81218;DHT22;70689;52.494;13.420;2023-07-31T10:13:09;18.70;67.80
81218;DHT22;70689;52.494;13.420;2023-07-31T10:15:35;19.00;67.30
81218;DHT22;70689;52.494;13.420;2023-07-31T10:18:01;19.20;66.30
81218;DHT22;70689;52.494;13.420;2023-07-31T10:20:28;19.20;66.60
81218;DHT22;70689;52.494;13.420;2023-07-31T10:22:57;19.20;66.20
81218;DHT22;70689;52.494;13.420;2023-07-31T10:25:26;19.20;66.00
81218;DHT22;70689;52.494;13.420;2023-07-31T10:27:53;19.20;66.10
81218;DHT22;70689;52.494;13.420;2023-07-31T10:30:21;19.10;67.00
81218;DHT22;70689;52.494;13.420;2023-07-31T10:32:48;18.90;67.80
81218;DHT22;70689;52.494;13.420;2023-07-31T10:35:16;19.00;68.50
81218;DHT22;70689;52.494;13.420;2023-07-31T10:37:43;19.10;68.90
81218;DHT22;70689;52.494;13.420;2023-07-31T10:40:18;19.30;67.70
81218;DHT22;70689;52.494;13.420;2023-07-31T10:43:05;19.40;67.80
81218;DHT22;70689;52.494;13.420;2023-07-31T10:45:35;19.40;67.00
81218;DHT22;70689;52.494;13.420;2023-07-31T10:48:15;19.50;67.10
81218;DHT22;70689;52.494;13.420;2023-07-31T10:50:48;19.70;65.50
81218;DHT22;70689;52.494;13.420;2023-07-31T10:53:30;20.40;63.50
81218;DHT22;70689;52.494;13.420;2023-07-31T10:56:03;21.10;60.50
81218;DHT22;70689;52.494;13.420;2023-07-31T10:58:30;21.90;57.60
81218;DHT22;70689;52.494;13.420;2023-07-31T11:00:59;22.10;56.30
81218;DHT22;70689;52.494;13.420;2023-07-31T11:03:45;21.70;55.10
81218;DHT22;70689;52.494;13.420;2023-07-31T11:06:12;21.90;57.00
81218;DHT22;70689;52.494;13.420;2023-07-31T11:08:47;22.70;53.10
81218;DHT22;70689;52.494;13.420;2023-07-31T11:11:14;23.20;51.10
81218;DHT22;70689;52.494;13.420;2023-07-31T11:13:44;23.70;49.10
81218;DHT22;70689;52.494;13.420;2023-07-31T11:16:12;23.30;48.30
81218;DHT22;70689;52.494;13.420;2023-07-31T11:18:41;22.30;50.40
81218;DHT22;70689;52.494;13.420;2023-07-31T11:21:11;21.60;53.00
81218;DHT22;70689;52.494;13.420;2023-07-31T11:23:37;21.40;54.70
81218;DHT22;70689;52.494;13.420;2023-07-31T11:26:05;21.40;54.20
81218;DHT22;70689;52.494;13.420;2023-07-31T11:28:32;21.60;52.80
81218;DHT22;70689;52.494;13.420;2023-07-31T11:30:59;22.00;52.40
81218;DHT22;70689;52.494;13.420;2023-07-31T11:33:25;22.10;51.70
81218;DHT22;70689;52.494;13.420;2023-07-31T11:35:51;22.10;51.90
81218;DHT22;70689;52.494;13.420;2023-07-31T11:38:24;22.00;51.10
81218;DHT22;70689;52.494;13.420;2023-07-31T11:40:55;22.20;50.60
81218;DHT22;70689;52.494;13.420;2023-07-31T11:43:21;22.20;50.10
81218;DHT22;70689;52.494;13.420;2023-07-31T11:45:52;22.10;50.40
81218;DHT22;70689;52.494;13.420;2023-07-31T11:48:25;21.90;50.60
81218;DHT22;70689;52.494;13.420;2023-07-31T11:51:03;21.90;51.00
81218;DHT22;70689;52.494;13.420;2023-07-31T11:53:41;21.80;50.80
81218;DHT22;70689;52.494;13.420;2023-07-31T11:56:12;21.60;51.10
81218;DHT22;70689;52.494;13.420;2023-07-31T11:58:39;21.40;51.70
81218;DHT22;70689;52.494;13.420;2023-07-31T12:01:06;21.40;52.10
81218;DHT22;70689;52.494;13.420;2023-07-31T12:03:32;21.40;51.80
81218;DHT22;70689;52.494;13.420;2023-07-31T12:05:59;21.30;51.90
81218;DHT22;70689;52.494;13.420;2023-07-31T12:08:25;21.20;52.30
81218;DHT22;70689;52.494;13.420;2023-07-31T12:10:52;21.30;52.50
81218;DHT22;70689;52.494;13.420;2023-07-31T12:13:25;21.30;52.30
81218;DHT22;70689;52.494;13.420;2023-07-31T12:15:56;21.20;52.80
81218;DHT22;70689;52.494;13.420;2023-07-31T12:18:26;21.40;52.70
81218;DHT22;70689;52.494;13.420;2023-07-31T12:20:57;21.50;52.30
81218;DHT22;70689;52.494;13.420;2023-07-31T12:23:26;21.40;51.30
81218;DHT22;70689;52.494;13.420;2023-07-31T12:26:17;21.50;50.90
81218;DHT22;70689;52.494;13.420;2023-07-31T12:28:50;21.50;50.90
81218;DHT22;70689;52.494;13.420;2023-07-31T12:31:18;21.60;50.50
81218;DHT22;70689;52.494;13.420;2023-07-31T12:33:45;21.70;50.10
81218;DHT22;70689;52.494;13.420;2023-07-31T12:36:16;21.90;49.40
81218;DHT22;70689;52.494;13.420;2023-07-31T12:38:42;22.10;48.40
81218;DHT22;70689;52.494;13.420;2023-07-31T12:41:08;22.30;47.80
81218;DHT22;70689;52.494;13.420;2023-07-31T12:43:39;22.10;48.60
81218;DHT22;70689;52.494;13.420;2023-07-31T12:46:05;22.10;49.20
81218;DHT22;70689;52.494;13.420;2023-07-31T12:48:33;22.10;49.70
81218;DHT22;70689;52.494;13.420;2023-07-31T12:50:59;21.90;50.20
81218;DHT22;70689;52.494;13.420;2023-07-31T12:53:24;21.80;51.10
81218;DHT22;70689;52.494;13.420;2023-07-31T12:55:50;21.70;51.00
81218;DHT22;70689;52.494;13.420;2023-07-31T12:58:16;21.70;50.70
81218;DHT22;70689;52.494;13.420;2023-07-31T13:00:42;21.80;50.90
81218;DHT22;70689;52.494;13.420;2023-07-31T13:03:08;21.70;50.60
81218;DHT22;70689;52.494;13.420;2023-07-31T13:05:33;21.60;50.90
81218;DHT22;70689;52.494;13.420;2023-07-31T13:07:59;21.70;50.70
81218;DHT22;70689;52.494;13.420;2023-07-31T13:10:25;21.50;52.50
81218;DHT22;70689;52.494;13.420;2023-07-31T13:12:54;21.50;51.00
81218;DHT22;70689;52.494;13.420;2023-07-31T13:15:20;21.30;51.20
81218;DHT22;70689;52.494;13.420;2023-07-31T13:17:46;21.30;51.60
81218;DHT22;70689;52.494;13.420;2023-07-31T13:20:12;21.30;52.00
81218;DHT22;70689;52.494;13.420;2023-07-31T13:22:38;21.30;52.00
81218;DHT22;70689;52.494;13.420;2023-07-31T13:25:04;21.40;51.90
81218;DHT22;70689;52.494;13.420;2023-07-31T13:27:30;21.40;51.90
81218;DHT22;70689;52.494;13.420;2023-07-31T13:29:56;21.50;53.00
81218;DHT22;70689;52.494;13.420;2023-07-31T13:32:22;21.50;52.10
81218;DHT22;70689;52.494;13.420;2023-07-31T13:34:48;21.50;51.90
81218;DHT22;70689;52.494;13.420;2023-07-31T13:37:14;21.40;52.40
81218;DHT22;70689;52.494;13.420;2023-07-31T13:39:41;21.50;52.30
81218;DHT22;70689;52.494;13.420;2023-07-31T13:42:08;21.80;51.30
81218;DHT22;70689;52.494;13.420;2023-07-31T13:44:37;21.90;51.00
81218;DHT22;70689;52.494;13.420;2023-07-31T13:47:03;21.80;51.10
81218;DHT22;70689;52.494;13.420;2023-07-31T13:49:29;21.80;52.20
81218;DHT22;70689;52.494;13.420;2023-07-31T13:51:55;21.90;51.00
81218;DHT22;70689;52.494;13.420;2023-07-31T13:54:23;21.90;51.00
81218;DHT22;70689;52.494;13.420;2023-07-31T13:56:48;22.00;50.40
81218;DHT22;70689;52.494;13.420;2023-07-31T13:59:14;22.00;50.40
81218;DHT22;70689;52.494;13.420;2023-07-31T14:01:44;22.20;50.00
81218;DHT22;70689;52.494;13.420;2023-07-31T14:04:10;22.10;50.10
81218;DHT22;70689;52.494;13.420;2023-07-31T14:06:36;22.10;50.30
81218;DHT22;70689;52.494;13.420;2023-07-31T14:09:02;22.30;50.00
81218;DHT22;70689;52.494;13.420;2023-07-31T14:11:28;22.40;50.10
81218;DHT22;70689;52.494;13.420;2023-07-31T14:13:54;22.30;50.00
81218;DHT22;70689;52.494;13.420;2023-07-31T14:16:21;22.50;49.40
81218;DHT22;70689;52.494;13.420;2023-07-31T14:18:47;22.50;49.30
81218;DHT22;70689;52.494;13.420;2023-07-31T14:21:13;22.40;49.20
81218;DHT22;70689;52.494;13.420;2023-07-31T14:23:39;22.40;49.40
81218;DHT22;70689;52.494;13.420;2023-07-31T14:26:05;22.40;49.80
81218;DHT22;70689;52.494;13.420;2023-07-31T14:28:31;22.40;50.20
81218;DHT22;70689;52.494;13.420;2023-07-31T14:30:56;22.30;49.50
81218;DHT22;70689;52.494;13.420;2023-07-31T14:33:22;22.30;50.10
81218;DHT22;70689;52.494;13.420;2023-07-31T14:35:48;22.30;50.00
81218;DHT22;70689;52.494;13.420;2023-07-31T14:38:13;22.20;50.30
81218;DHT22;70689;52.494;13.420;2023-07-31T14:40:39;22.20;50.40
81218;DHT22;70689;52.494;13.420;2023-07-31T14:43:05;22.40;49.50
81218;DHT22;70689;52.494;13.420;2023-07-31T14:45:31;22.40;49.40
81218;DHT22;70689;52.494;13.420;2023-07-31T14:47:56;22.50;49.20
81218;DHT22;70689;52.494;13.420;2023-07-31T14:50:22;22.40;48.70
81218;DHT22;70689;52.494;13.420;2023-07-31T14:52:49;22.20;49.10
81218;DHT22;70689;52.494;13.420;2023-07-31T14:55:15;22.30;49.00
81218;DHT22;70689;52.494;13.420;2023-07-31T14:57:40;22.40;48.30
81218;DHT22;70689;52.494;13.420;2023-07-31T15:00:06;22.40;47.90
81218;DHT22;70689;52.494;13.420;2023-07-31T15:02:37;22.40;48.10
81218;DHT22;70689;52.494;13.420;2023-07-31T15:05:02;22.30;48.10
81218;DHT22;70689;52.494;13.420;2023-07-31T15:07:28;22.40;48.10
81218;DHT22;70689;52.494;13.420;2023-07-31T15:09:54;22.30;48.40
81218;DHT22;70689;52.494;13.420;2023-07-31T15:12:20;22.20;49.20
81218;DHT22;70689;52.494;13.420;2023-07-31T15:14:45;22.20;49.20
81218;DHT22;70689;52.494;13.420;2023-07-31T15:17:11;22.30;49.00
81218;DHT22;70689;52.494;13.420;2023-07-31T15:19:37;22.30;50.20
81218;DHT22;70689;52.494;13.420;2023-07-31T15:22:03;22.40;49.10
81218;DHT22;70689;52.494;13.420;2023-07-31T15:24:29;22.40;50.10